createdAt,value
2022-10-08T00:01:38.227Z,100.00
2022-10-08T00:04:07.835Z,100.00
2022-10-08T00:06:36.937Z,100.00
2022-10-08T00:09:08.737Z,100.00
2022-10-08T00:11:41.842Z,100.00
2022-10-08T00:14:10.995Z,100.00
2022-10-08T00:16:43.073Z,100.00
2022-10-08T00:19:16.237Z,100.00
2022-10-08T00:21:47.908Z,100.00
2022-10-08T00:24:20.040Z,100.00
2022-10-08T00:26:52.353Z,100.00
2022-10-08T00:29:22.939Z,100.00
2022-10-08T00:31:52.932Z,100.00
2022-10-08T00:34:24.611Z,100.00
2022-10-08T00:36:55.547Z,100.00
2022-10-08T00:39:26.736Z,100.00
2022-10-08T00:41:58.831Z,100.00
2022-10-08T00:44:58.128Z,100.00
2022-10-08T00:47:43.234Z,100.00
2022-10-08T00:50:18.922Z,100.00
2022-10-08T00:52:51.788Z,100.00
2022-10-08T00:55:24.104Z,100.00
2022-10-08T00:57:55.495Z,100.00
2022-10-08T01:00:27.063Z,100.00
2022-10-08T01:02:57.862Z,100.00
2022-10-08T01:05:43.139Z,100.00
2022-10-08T01:08:23.604Z,100.00
2022-10-08T01:11:05.158Z,100.00
2022-10-08T01:13:46.036Z,100.00
2022-10-08T01:16:29.513Z,100.00
2022-10-08T01:19:14.858Z,100.00
2022-10-08T01:22:00.717Z,100.00
2022-10-08T01:25:01.876Z,100.00
2022-10-08T01:27:43.513Z,100.00
2022-10-08T01:30:17.825Z,100.00
2022-10-08T01:32:59.692Z,100.00
2022-10-08T01:35:33.974Z,100.00
2022-10-08T01:38:08.210Z,100.00
2022-10-08T01:40:40.871Z,100.00
2022-10-08T01:43:17.224Z,100.00
2022-10-08T01:45:53.798Z,100.00
2022-10-08T01:48:28.353Z,100.00
2022-10-08T01:51:06.037Z,100.00
2022-10-08T01:53:41.792Z,100.00
2022-10-08T01:56:17.621Z,100.00
2022-10-08T01:58:54.676Z,100.00
2022-10-08T02:01:34.449Z,100.00
2022-10-08T02:04:20.847Z,100.00
2022-10-08T02:06:57.104Z,100.00
2022-10-08T02:09:28.524Z,100.00
2022-10-08T02:11:57.805Z,100.00
2022-10-08T02:14:31.255Z,100.00
2022-10-08T02:17:13.610Z,100.00
2022-10-08T02:19:55.482Z,100.00
2022-10-08T02:22:34.396Z,100.00
2022-10-08T02:25:15.507Z,100.00
2022-10-08T02:27:59.456Z,100.00
2022-10-08T02:30:40.445Z,100.00
2022-10-08T02:33:15.828Z,100.00
2022-10-08T02:35:52.842Z,100.00
2022-10-08T02:38:28.809Z,100.00
2022-10-08T02:41:03.600Z,100.00
2022-10-08T02:43:36.997Z,100.00
2022-10-08T02:46:17.412Z,100.00
2022-10-08T02:48:55.101Z,100.00
2022-10-08T02:51:27.933Z,100.00
2022-10-08T02:53:57.625Z,100.00
2022-10-08T02:56:35.097Z,100.00
2022-10-08T02:59:05.116Z,100.00
2022-10-08T03:01:43.790Z,100.00
2022-10-08T03:04:25.856Z,100.00
2022-10-08T03:06:56.741Z,100.00
2022-10-08T03:09:30.523Z,100.00
2022-10-08T03:12:01.174Z,100.00
2022-10-08T03:14:33.355Z,100.00
2022-10-08T03:17:04.065Z,100.00
2022-10-08T03:19:35.675Z,100.00
2022-10-08T03:22:05.744Z,100.00
2022-10-08T03:24:36.377Z,100.00
2022-10-08T03:27:06.729Z,100.00
2022-10-08T03:29:36.978Z,100.00
2022-10-08T03:32:07.731Z,100.00
2022-10-08T03:34:36.629Z,100.00
2022-10-08T03:37:05.709Z,100.00
2022-10-08T03:39:34.545Z,100.00
2022-10-08T03:42:03.292Z,100.00
2022-10-08T03:44:33.985Z,100.00
2022-10-08T03:47:03.170Z,100.00
2022-10-08T03:49:33.484Z,100.00
2022-10-08T03:52:02.349Z,100.00
2022-10-08T03:54:35.337Z,100.00
2022-10-08T03:57:04.514Z,100.00
2022-10-08T03:59:33.242Z,100.00
2022-10-08T04:02:01.735Z,100.00
2022-10-08T04:04:30.392Z,100.00
2022-10-08T04:07:00.361Z,100.00
2022-10-08T04:09:29.740Z,100.00
2022-10-08T04:11:58.615Z,100.00
2022-10-08T04:14:28.201Z,100.00
2022-10-08T04:16:57.179Z,100.00
2022-10-08T04:19:26.694Z,100.00
2022-10-08T04:21:55.649Z,100.00
2022-10-08T04:24:27.592Z,100.00
2022-10-08T04:26:57.871Z,100.00
2022-10-08T04:29:26.453Z,100.00
2022-10-08T04:31:55.059Z,100.00
2022-10-08T04:34:24.157Z,100.00
2022-10-08T04:36:53.383Z,100.00
2022-10-08T04:39:22.225Z,100.00
2022-10-08T04:41:54.050Z,100.00
2022-10-08T04:44:24.141Z,100.00
2022-10-08T04:46:56.149Z,100.00
2022-10-08T04:49:25.823Z,100.00
2022-10-08T04:51:55.067Z,100.00
2022-10-08T04:54:24.114Z,100.00
2022-10-08T04:56:55.223Z,100.00
2022-10-08T04:59:25.076Z,100.00
2022-10-08T05:01:59.086Z,100.00
2022-10-08T05:04:28.973Z,100.00
2022-10-08T05:06:58.433Z,100.00
2022-10-08T05:09:27.709Z,100.00
2022-10-08T05:11:57.718Z,100.00
2022-10-08T05:14:26.745Z,100.00
2022-10-08T05:16:55.954Z,100.00
2022-10-08T05:19:25.327Z,100.00
2022-10-08T05:21:54.008Z,100.00
2022-10-08T05:24:22.591Z,100.00
2022-10-08T05:26:58.545Z,100.00
2022-10-08T05:29:30.443Z,100.00
2022-10-08T05:32:00.655Z,100.00
2022-10-08T05:34:29.346Z,100.00
2022-10-08T05:36:59.145Z,100.00
2022-10-08T05:39:28.729Z,100.00
2022-10-08T05:41:57.429Z,100.00
2022-10-08T05:44:26.046Z,100.00
2022-10-08T05:46:56.182Z,100.00
2022-10-08T05:49:25.411Z,100.00
2022-10-08T05:51:54.641Z,100.00
2022-10-08T05:54:23.201Z,100.00
2022-10-08T05:56:52.619Z,100.00
2022-10-08T05:59:24.162Z,100.00
2022-10-08T06:01:53.547Z,100.00
2022-10-08T06:04:23.860Z,100.00
2022-10-08T06:06:53.475Z,100.00
2022-10-08T06:09:23.221Z,100.00
2022-10-08T06:11:51.985Z,100.00
2022-10-08T06:14:24.545Z,100.00
2022-10-08T06:16:53.811Z,100.00
2022-10-08T06:19:23.910Z,100.00
2022-10-08T06:21:52.664Z,100.00
2022-10-08T06:24:21.724Z,100.00
2022-10-08T06:26:51.790Z,100.00
2022-10-08T06:29:22.559Z,100.00
2022-10-08T06:31:52.495Z,100.00
2022-10-08T06:34:23.925Z,100.00
2022-10-08T06:36:55.476Z,100.00
2022-10-08T06:39:24.980Z,100.00
2022-10-08T06:41:53.624Z,100.00
2022-10-08T06:44:22.365Z,100.00
2022-10-08T06:46:51.417Z,100.00
2022-10-08T06:49:21.183Z,100.00
2022-10-08T06:51:51.202Z,100.00
2022-10-08T06:54:19.957Z,100.00
2022-10-08T06:56:48.506Z,100.00
2022-10-08T06:59:17.059Z,100.00
2022-10-08T07:01:45.986Z,100.00
2022-10-08T07:04:14.763Z,100.00
2022-10-08T07:06:43.523Z,100.00
2022-10-08T07:09:13.657Z,100.00
2022-10-08T07:11:42.310Z,100.00
2022-10-08T07:14:10.889Z,100.00
2022-10-08T07:16:39.617Z,100.00
2022-10-08T07:19:08.498Z,100.00
2022-10-08T07:21:37.135Z,100.00
2022-10-08T07:24:06.224Z,100.00
2022-10-08T07:26:37.583Z,100.00
2022-10-08T07:29:09.432Z,100.00
2022-10-08T07:31:39.669Z,100.00
2022-10-08T07:34:12.025Z,100.00
2022-10-08T07:36:41.693Z,100.00
2022-10-08T07:39:14.724Z,100.00
2022-10-08T07:41:44.993Z,100.00
2022-10-08T07:44:15.653Z,100.00
2022-10-08T07:46:46.810Z,100.00
2022-10-08T07:49:16.870Z,100.00
2022-10-08T07:51:46.352Z,100.00
2022-10-08T07:54:19.056Z,100.00
2022-10-08T07:56:50.837Z,100.00
2022-10-08T07:59:19.585Z,100.00
2022-10-08T08:01:48.435Z,100.00
2022-10-08T08:04:17.224Z,100.00
2022-10-08T08:06:48.780Z,100.00
2022-10-08T08:09:18.428Z,100.00
2022-10-08T08:11:49.702Z,100.00
2022-10-08T08:14:19.836Z,100.00
2022-10-08T08:16:48.901Z,100.00
2022-10-08T08:19:17.721Z,100.00
2022-10-08T08:21:46.357Z,100.00
2022-10-08T08:24:16.799Z,100.00
2022-10-08T08:26:45.997Z,100.00
2022-10-08T08:29:18.590Z,100.00
2022-10-08T08:31:50.397Z,100.00
2022-10-08T08:34:22.523Z,100.00
2022-10-08T08:36:54.642Z,100.00
2022-10-08T08:39:25.724Z,100.00
2022-10-08T08:42:25.466Z,100.00
2022-10-08T08:45:01.959Z,100.00
2022-10-08T08:47:37.947Z,100.00
2022-10-08T08:50:23.531Z,100.00
2022-10-08T08:52:53.716Z,100.00
2022-10-08T08:55:34.662Z,100.00
2022-10-08T08:58:25.718Z,100.00
2022-10-08T09:01:06.790Z,100.00
2022-10-08T09:03:42.411Z,100.00
2022-10-08T09:06:15.681Z,100.00
2022-10-08T09:08:49.906Z,100.00
2022-10-08T09:11:22.890Z,100.00
2022-10-08T09:13:58.810Z,100.00
2022-10-08T09:16:30.293Z,100.00
2022-10-08T09:18:58.887Z,100.00
2022-10-08T09:21:32.733Z,100.00
2022-10-08T09:24:01.830Z,100.00
2022-10-08T09:26:35.145Z,100.00
2022-10-08T09:29:06.029Z,100.00
2022-10-08T09:31:46.714Z,100.00
2022-10-08T09:34:21.135Z,100.00
2022-10-08T09:36:52.963Z,100.00
2022-10-08T09:39:24.473Z,100.00
2022-10-08T09:42:17.371Z,100.00
2022-10-08T09:44:48.084Z,100.00
2022-10-08T09:47:19.944Z,100.00
2022-10-08T09:50:03.980Z,100.00
2022-10-08T09:52:32.953Z,100.00
2022-10-08T09:55:09.173Z,100.00
2022-10-08T09:57:46.037Z,100.00
2022-10-08T10:00:27.752Z,100.00
2022-10-08T10:03:00.058Z,100.00
2022-10-08T10:05:32.314Z,100.00
2022-10-08T10:08:01.275Z,100.00
2022-10-08T10:10:36.784Z,100.00
2022-10-08T10:13:14.140Z,100.00
2022-10-08T10:15:49.198Z,100.00
2022-10-08T10:18:23.553Z,100.00
2022-10-08T10:20:58.630Z,100.00
2022-10-08T10:23:36.911Z,100.00
2022-10-08T10:26:11.663Z,100.00
2022-10-08T10:28:46.271Z,100.00
2022-10-08T10:31:23.510Z,100.00
2022-10-08T10:34:02.307Z,100.00
2022-10-08T10:36:37.009Z,100.00
2022-10-08T10:39:24.363Z,100.00
2022-10-08T10:42:05.988Z,100.00
2022-10-08T10:44:49.837Z,100.00
2022-10-08T10:47:31.672Z,100.00
2022-10-08T10:50:03.751Z,100.00
2022-10-08T10:52:52.739Z,100.00
2022-10-08T10:55:32.294Z,100.00
2022-10-08T10:58:28.433Z,100.00
2022-10-08T11:01:12.150Z,100.00
2022-10-08T11:03:56.000Z,100.00
2022-10-08T11:07:03.072Z,100.00
2022-10-08T11:09:45.459Z,100.00
2022-10-08T11:12:31.150Z,100.00
2022-10-08T11:15:19.241Z,100.00
2022-10-08T11:18:15.628Z,100.00
2022-10-08T11:21:08.213Z,100.00
2022-10-08T11:24:02.119Z,100.00
2022-10-08T11:26:44.142Z,100.00
2022-10-08T11:29:24.809Z,100.00
2022-10-08T11:31:54.390Z,100.00
2022-10-08T11:34:28.805Z,100.00
2022-10-08T11:37:12.590Z,100.00
2022-10-08T11:39:59.441Z,100.00
2022-10-08T11:42:42.917Z,100.00
2022-10-08T11:45:31.923Z,100.00
2022-10-08T11:48:05.418Z,100.00
2022-10-08T11:50:41.126Z,100.00
2022-10-08T11:53:22.131Z,100.00
2022-10-08T11:55:56.764Z,100.00
2022-10-08T11:58:31.064Z,100.00
2022-10-08T12:01:07.965Z,100.00
2022-10-08T12:03:42.070Z,100.00
2022-10-08T12:06:24.928Z,100.00
2022-10-08T12:08:57.300Z,100.00
2022-10-08T12:11:54.123Z,100.00
2022-10-08T12:14:49.059Z,100.00
2022-10-08T12:17:19.229Z,100.00
2022-10-08T12:20:27.284Z,100.00
2022-10-08T12:23:04.670Z,100.00
2022-10-08T12:25:41.872Z,100.00
2022-10-08T12:28:50.608Z,100.00
2022-10-08T12:31:32.977Z,100.00
2022-10-08T12:34:15.656Z,100.00
2022-10-08T12:37:04.782Z,100.00
2022-10-08T12:39:42.767Z,100.00
2022-10-08T12:42:24.077Z,100.00
2022-10-08T12:45:09.113Z,100.00
2022-10-08T12:48:06.011Z,100.00
2022-10-08T12:50:58.252Z,98.92
2022-10-08T12:53:27.339Z,96.05
2022-10-08T12:56:00.711Z,94.16
2022-10-08T12:58:32.923Z,91.90
2022-10-08T13:01:06.927Z,93.66
2022-10-08T13:03:35.522Z,93.11
2022-10-08T13:06:19.654Z,92.77
2022-10-08T13:08:51.089Z,93.80
2022-10-08T13:11:20.284Z,93.04
2022-10-08T13:13:51.537Z,92.07
2022-10-08T13:16:25.083Z,94.60
2022-10-08T13:18:57.637Z,93.68
2022-10-08T13:21:39.100Z,94.32
2022-10-08T13:24:40.415Z,91.74
2022-10-08T13:27:24.596Z,93.13
2022-10-08T13:29:53.224Z,92.10
2022-10-08T13:32:25.965Z,85.16
2022-10-08T13:34:58.795Z,81.10
2022-10-08T13:37:34.975Z,81.23
2022-10-08T13:40:17.227Z,79.75
2022-10-08T13:42:50.584Z,79.92
2022-10-08T13:45:21.676Z,81.26
2022-10-08T13:47:52.800Z,81.44
2022-10-08T13:50:24.106Z,84.15
2022-10-08T13:52:57.233Z,77.60
2022-10-08T13:55:29.105Z,78.74
2022-10-08T13:58:02.031Z,78.73
2022-10-08T14:00:32.812Z,78.92
2022-10-08T14:03:03.091Z,79.22
2022-10-08T14:05:35.862Z,74.03
2022-10-08T14:08:12.370Z,70.21
2022-10-08T14:10:41.863Z,73.75
2022-10-08T14:13:14.647Z,73.45
2022-10-08T14:15:43.858Z,73.16
2022-10-08T14:18:13.845Z,72.41
2022-10-08T14:20:43.201Z,74.16
2022-10-08T14:23:14.594Z,69.71
2022-10-08T14:25:43.198Z,69.56
2022-10-08T14:28:11.704Z,68.97
2022-10-08T14:30:40.260Z,70.31
2022-10-08T14:33:11.376Z,72.72
2022-10-08T14:35:41.842Z,73.36
2022-10-08T14:38:10.385Z,69.92
2022-10-08T14:40:39.385Z,71.41
2022-10-08T14:43:07.967Z,74.84
2022-10-08T14:45:36.577Z,70.74
2022-10-08T14:48:05.684Z,69.40
2022-10-08T14:50:34.957Z,71.14
2022-10-08T14:53:04.944Z,66.17
2022-10-08T14:55:49.231Z,66.25
2022-10-08T14:58:22.811Z,66.01
2022-10-08T15:00:55.896Z,65.82
2022-10-08T15:03:25.440Z,68.62
2022-10-08T15:05:59.228Z,68.60
2022-10-08T15:08:29.755Z,68.44
2022-10-08T15:11:04.423Z,67.41
2022-10-08T15:13:33.709Z,66.76
2022-10-08T15:16:02.891Z,65.87
2022-10-08T15:18:32.760Z,67.62
2022-10-08T15:21:02.321Z,68.65
2022-10-08T15:23:32.574Z,71.21
2022-10-08T15:26:05.028Z,73.62
2022-10-08T15:28:36.965Z,72.90
2022-10-08T15:31:08.978Z,70.80
2022-10-08T15:33:42.171Z,69.35
2022-10-08T15:36:21.633Z,72.47
2022-10-08T15:38:58.946Z,71.51
2022-10-08T15:41:29.003Z,73.08
2022-10-08T15:44:07.495Z,77.10
2022-10-08T15:46:36.077Z,78.41
2022-10-08T15:49:05.398Z,81.63
2022-10-08T15:51:34.675Z,82.64
2022-10-08T15:54:05.123Z,83.55
2022-10-08T15:56:37.299Z,84.10
2022-10-08T15:59:06.600Z,84.96
2022-10-08T16:01:35.305Z,85.59
2022-10-08T16:04:04.003Z,85.90
2022-10-08T16:06:36.585Z,86.86
2022-10-08T16:09:06.994Z,87.93
2022-10-08T16:11:36.506Z,89.17
2022-10-08T16:14:08.981Z,90.65
2022-10-08T16:16:39.137Z,91.09
2022-10-08T16:19:10.420Z,91.67
2022-10-08T16:21:40.660Z,93.15
2022-10-08T16:24:11.858Z,95.41
2022-10-08T16:26:42.463Z,95.39
2022-10-08T16:29:14.353Z,96.93
2022-10-08T16:31:45.550Z,97.14
2022-10-08T16:34:17.454Z,98.01
2022-10-08T16:36:48.123Z,99.58
2022-10-08T16:39:21.019Z,100.00
2022-10-08T16:41:50.232Z,100.00
2022-10-08T16:44:21.801Z,100.00
2022-10-08T16:46:52.497Z,100.00
2022-10-08T16:49:26.087Z,100.00
2022-10-08T16:51:56.632Z,100.00
2022-10-08T16:54:27.559Z,100.00
2022-10-08T16:56:56.692Z,100.00
2022-10-08T16:59:27.915Z,100.00
2022-10-08T17:02:01.486Z,100.00
2022-10-08T17:04:36.391Z,100.00
2022-10-08T17:07:05.253Z,100.00
2022-10-08T17:09:36.113Z,100.00
2022-10-08T17:12:04.983Z,100.00
2022-10-08T17:14:33.409Z,100.00
2022-10-08T17:17:02.146Z,100.00
2022-10-08T17:19:31.895Z,100.00
2022-10-08T17:22:01.175Z,100.00
2022-10-08T17:24:29.948Z,100.00
2022-10-08T17:27:00.903Z,100.00
2022-10-08T17:29:30.086Z,100.00
2022-10-08T17:32:03.113Z,100.00
2022-10-08T17:34:31.749Z,100.00
2022-10-08T17:37:02.263Z,100.00
2022-10-08T17:39:32.710Z,100.00
2022-10-08T17:42:06.861Z,100.00
2022-10-08T17:44:35.922Z,100.00
2022-10-08T17:47:04.962Z,100.00
2022-10-08T17:49:34.045Z,100.00
2022-10-08T17:52:03.674Z,100.00
2022-10-08T17:54:32.550Z,100.00
2022-10-08T17:57:02.801Z,100.00
2022-10-08T17:59:32.097Z,100.00
2022-10-08T18:02:00.856Z,100.00
2022-10-08T18:04:30.249Z,100.00
2022-10-08T18:07:03.298Z,100.00
2022-10-08T18:09:32.405Z,100.00
2022-10-08T18:12:03.048Z,100.00
2022-10-08T18:14:31.814Z,100.00
2022-10-08T18:17:00.856Z,100.00
2022-10-08T18:19:29.411Z,100.00
2022-10-08T18:22:01.983Z,100.00
2022-10-08T18:24:33.412Z,100.00
2022-10-08T18:27:04.154Z,100.00
2022-10-08T18:29:35.988Z,100.00
2022-10-08T18:32:06.932Z,100.00
2022-10-08T18:34:35.685Z,100.00
2022-10-08T18:37:06.237Z,100.00
2022-10-08T18:39:36.120Z,100.00
2022-10-08T18:42:15.572Z,100.00
2022-10-08T18:44:53.392Z,100.00
2022-10-08T18:47:26.484Z,100.00
2022-10-08T18:49:56.815Z,100.00
2022-10-08T18:52:27.601Z,100.00
2022-10-08T18:54:56.882Z,100.00
2022-10-08T18:57:27.443Z,100.00
2022-10-08T19:00:02.664Z,100.00
2022-10-08T19:02:38.005Z,100.00
2022-10-08T19:05:08.599Z,100.00
2022-10-08T19:07:37.299Z,100.00
2022-10-08T19:10:07.910Z,100.00
2022-10-08T19:12:38.653Z,100.00
2022-10-08T19:15:10.927Z,100.00
2022-10-08T19:17:41.028Z,100.00
2022-10-08T19:20:12.607Z,100.00
2022-10-08T19:22:44.167Z,100.00
2022-10-08T19:25:14.458Z,100.00
2022-10-08T19:27:50.085Z,100.00
2022-10-08T19:30:23.912Z,100.00
2022-10-08T19:32:54.392Z,100.00
2022-10-08T19:35:26.634Z,100.00
2022-10-08T19:37:55.740Z,100.00
2022-10-08T19:40:24.702Z,100.00
2022-10-08T19:42:56.276Z,100.00
2022-10-08T19:45:25.062Z,100.00
2022-10-08T19:47:53.764Z,100.00
2022-10-08T19:50:22.863Z,100.00
2022-10-08T19:52:52.104Z,100.00
2022-10-08T19:55:21.137Z,100.00
2022-10-08T19:57:49.903Z,100.00
2022-10-08T20:00:21.107Z,100.00
2022-10-08T20:03:01.669Z,100.00
2022-10-08T20:05:34.751Z,100.00
2022-10-08T20:08:04.453Z,100.00
2022-10-08T20:10:41.672Z,100.00
2022-10-08T20:13:10.490Z,100.00
2022-10-08T20:15:41.111Z,100.00
2022-10-08T20:18:14.777Z,100.00
2022-10-08T20:26:45.545Z,100.00
2022-10-08T20:29:19.619Z,100.00
2022-10-08T20:31:57.830Z,100.00
2022-10-08T20:34:31.426Z,100.00
2022-10-08T20:37:05.436Z,100.00
2022-10-08T20:39:34.771Z,100.00
2022-10-08T20:42:11.720Z,100.00
2022-10-08T20:44:46.280Z,100.00
2022-10-08T20:47:18.080Z,100.00
2022-10-08T20:49:53.651Z,100.00
2022-10-08T20:52:25.655Z,100.00
2022-10-08T20:54:59.241Z,100.00
2022-10-08T20:57:28.266Z,100.00
2022-10-08T21:00:38.354Z,100.00
2022-10-08T21:03:08.558Z,100.00
2022-10-08T21:05:47.129Z,100.00
2022-10-08T21:08:15.782Z,100.00
2022-10-08T21:10:44.775Z,100.00
2022-10-08T21:13:13.840Z,100.00
2022-10-08T21:15:46.264Z,100.00
2022-10-08T21:18:16.711Z,100.00
2022-10-08T21:20:52.248Z,100.00
2022-10-08T21:23:21.501Z,100.00
2022-10-08T21:25:50.498Z,100.00
2022-10-08T21:28:19.404Z,100.00
2022-10-08T21:30:54.716Z,100.00
2022-10-08T21:33:25.662Z,100.00
2022-10-08T21:35:58.645Z,100.00
2022-10-08T21:38:27.941Z,100.00
2022-10-08T21:40:57.832Z,100.00
2022-10-08T21:43:34.044Z,100.00
2022-10-08T21:46:03.672Z,100.00
2022-10-08T21:48:34.999Z,100.00
2022-10-08T21:51:07.028Z,100.00
2022-10-08T21:53:38.485Z,100.00
2022-10-08T21:56:12.162Z,100.00
2022-10-08T21:58:44.009Z,100.00
2022-10-08T22:01:25.648Z,100.00
2022-10-08T22:03:58.084Z,100.00
2022-10-08T22:06:28.957Z,100.00
2022-10-08T22:08:58.023Z,100.00
2022-10-08T22:11:27.924Z,100.00
2022-10-08T22:13:58.102Z,100.00
2022-10-08T22:16:27.392Z,100.00
2022-10-08T22:18:58.554Z,100.00
2022-10-08T22:21:27.545Z,100.00
2022-10-08T22:23:58.310Z,100.00
2022-10-08T22:26:32.960Z,100.00
2022-10-08T22:29:02.128Z,100.00
2022-10-08T22:31:31.434Z,100.00
2022-10-08T22:34:02.199Z,100.00
2022-10-08T22:36:33.281Z,100.00
2022-10-08T22:39:02.550Z,100.00
2022-10-08T22:41:33.976Z,100.00
2022-10-08T22:44:03.808Z,100.00
2022-10-08T22:46:38.789Z,100.00
2022-10-08T22:49:12.961Z,100.00
2022-10-08T22:51:43.962Z,100.00
2022-10-08T22:54:14.229Z,100.00
2022-10-08T22:56:43.202Z,100.00
2022-10-08T22:59:12.786Z,100.00
2022-10-08T23:01:41.442Z,100.00
2022-10-08T23:04:11.461Z,100.00
2022-10-08T23:06:40.655Z,100.00
2022-10-08T23:09:14.322Z,100.00
2022-10-08T23:11:43.300Z,100.00
2022-10-08T23:14:12.788Z,100.00
2022-10-08T23:16:41.992Z,100.00
2022-10-08T23:19:13.469Z,100.00
2022-10-08T23:21:44.350Z,100.00
2022-10-08T23:24:13.693Z,100.00
2022-10-08T23:26:43.424Z,100.00
2022-10-08T23:29:13.443Z,100.00
2022-10-08T23:31:42.716Z,100.00
2022-10-08T23:34:13.607Z,100.00
2022-10-08T23:36:46.224Z,100.00
2022-10-08T23:39:18.275Z,100.00
2022-10-08T23:41:49.206Z,100.00
2022-10-08T23:44:17.920Z,100.00
2022-10-08T23:46:47.941Z,100.00
2022-10-08T23:49:18.774Z,100.00
2022-10-08T23:51:48.079Z,100.00
2022-10-08T23:54:16.896Z,100.00
2022-10-08T23:56:45.923Z,100.00
2022-10-08T23:59:15.080Z,100.00
